createdAt,value
2022-12-29T00:00:48.639Z,2.35
2022-12-29T00:05:56.569Z,1.75
2022-12-29T00:10:58.323Z,1.65
2022-12-29T00:16:00.199Z,3.15
2022-12-29T00:21:20.468Z,2.63
2022-12-29T00:26:41.017Z,1.20
2022-12-29T00:32:01.569Z,1.23
2022-12-29T00:37:03.383Z,0.52
2022-12-29T00:42:25.680Z,1.90
2022-12-29T00:47:27.798Z,2.85
2022-12-29T00:52:29.694Z,3.08
2022-12-29T00:57:31.442Z,2.28
2022-12-29T01:02:33.415Z,4.38
2022-12-29T01:07:35.539Z,1.73
2022-12-29T01:12:43.135Z,3.47
2022-12-29T01:17:44.921Z,2.22
2022-12-29T01:22:46.901Z,6.22
2022-12-29T01:27:48.748Z,0.93
2022-12-29T01:32:50.523Z,3.15
2022-12-29T01:37:52.371Z,3.42
2022-12-29T01:42:54.240Z,3.70
2022-12-29T01:48:03.021Z,3.92
2022-12-29T01:53:16.523Z,4.18
2022-12-29T01:58:23.408Z,4.45
2022-12-29T02:03:27.673Z,3.75
2022-12-29T02:08:30.622Z,4.05
2022-12-29T02:13:32.717Z,3.63
2022-12-29T02:18:51.291Z,2.95
2022-12-29T02:23:59.070Z,1.55
2022-12-29T02:29:24.633Z,1.55
2022-12-29T02:34:32.402Z,4.28
2022-12-29T02:40:08.385Z,0.93
2022-12-29T02:45:21.712Z,0.63
2022-12-29T02:50:45.073Z,2.95
2022-12-29T02:55:51.167Z,1.50
2022-12-29T03:01:11.694Z,1.35
2022-12-29T03:06:33.478Z,1.70
2022-12-29T03:12:03.939Z,2.53
2022-12-29T03:17:15.637Z,0.68
2022-12-29T03:22:32.384Z,1.00
2022-12-29T03:27:37.993Z,1.05
2022-12-29T03:32:46.224Z,2.47
2022-12-29T03:38:00.884Z,2.00
2022-12-29T03:43:04.352Z,1.55
2022-12-29T03:48:06.259Z,1.05
2022-12-29T03:53:08.224Z,1.33
2022-12-29T03:58:10.080Z,4.22
2022-12-29T04:03:11.933Z,2.28
2022-12-29T04:08:13.793Z,3.00
2022-12-29T04:13:16.144Z,3.20
2022-12-29T04:18:20.007Z,5.63
2022-12-29T04:23:21.828Z,5.70
2022-12-29T04:28:23.924Z,3.05
2022-12-29T04:33:26.400Z,3.38
2022-12-29T04:38:28.234Z,0.90
2022-12-29T04:43:30.164Z,1.20
2022-12-29T04:48:31.961Z,1.73
2022-12-29T04:53:33.929Z,3.88
2022-12-29T04:58:36.764Z,3.30
2022-12-29T05:03:38.703Z,4.43
2022-12-29T05:08:40.558Z,3.33
2022-12-29T05:13:42.315Z,2.65
2022-12-29T05:18:44.164Z,8.27
2022-12-29T05:23:45.940Z,7.68
2022-12-29T05:28:47.706Z,1.65
2022-12-29T05:33:49.485Z,2.78
2022-12-29T05:38:51.402Z,3.72
2022-12-29T05:43:53.230Z,6.32
2022-12-29T05:48:54.972Z,5.30
2022-12-29T05:53:56.876Z,4.28
2022-12-29T05:58:58.700Z,6.70
2022-12-29T06:04:00.778Z,5.55
2022-12-29T06:09:02.653Z,9.80
2022-12-29T06:14:04.428Z,11.98
2022-12-29T06:19:06.185Z,5.72
2022-12-29T06:24:08.142Z,8.68
2022-12-29T06:29:10.231Z,6.20
2022-12-29T06:34:13.063Z,7.25
2022-12-29T06:39:15.046Z,8.73
2022-12-29T06:44:16.865Z,13.65
2022-12-29T06:49:18.726Z,17.40
2022-12-29T06:54:20.472Z,6.97
2022-12-29T06:59:22.283Z,3.60
2022-12-29T07:04:24.121Z,1.60
2022-12-29T07:09:26.264Z,13.07
2022-12-29T07:14:28.329Z,4.50
2022-12-29T07:19:30.093Z,8.52
2022-12-29T07:24:31.920Z,12.68
2022-12-29T07:29:33.811Z,3.88
2022-12-29T07:34:35.627Z,8.13
2022-12-29T07:39:37.405Z,5.88
2022-12-29T07:44:39.373Z,10.10
2022-12-29T07:49:41.162Z,7.70
2022-12-29T07:54:42.979Z,9.70
2022-12-29T07:59:44.762Z,6.30
2022-12-29T08:04:46.649Z,7.35
2022-12-29T08:09:48.441Z,9.65
2022-12-29T08:14:50.452Z,6.95
2022-12-29T08:19:52.214Z,8.38
2022-12-29T08:24:53.939Z,10.30
2022-12-29T08:29:55.735Z,6.95
2022-12-29T08:34:57.620Z,6.32
2022-12-29T08:40:01.028Z,6.80
2022-12-29T08:45:03.441Z,8.55
2022-12-29T08:50:05.735Z,5.97
2022-12-29T08:55:07.820Z,7.55
2022-12-29T09:00:10.381Z,6.50
2022-12-29T09:05:12.295Z,8.75
2022-12-29T09:10:14.204Z,8.07
2022-12-29T09:15:18.052Z,7.70
2022-12-29T09:20:20.492Z,11.07
2022-12-29T09:25:26.580Z,9.23
2022-12-29T09:30:28.350Z,9.50
2022-12-29T09:35:30.317Z,8.52
2022-12-29T09:40:34.325Z,8.57
2022-12-29T09:45:46.527Z,15.20
2022-12-29T09:51:00.064Z,17.42
2022-12-29T09:56:06.834Z,5.53
2022-12-29T10:01:32.066Z,10.68
2022-12-29T10:12:31.779Z,9.35
2022-12-29T10:18:09.640Z,9.48
2022-12-29T10:23:17.099Z,15.43
2022-12-29T10:28:21.594Z,9.55
2022-12-29T10:33:30.882Z,6.97
2022-12-29T10:38:43.498Z,10.77
2022-12-29T10:43:53.956Z,11.70
2022-12-29T10:48:55.758Z,10.88
2022-12-29T10:54:03.902Z,12.73
2022-12-29T10:59:26.441Z,8.20
2022-12-29T11:04:45.402Z,16.83
2022-12-29T11:09:47.533Z,7.45
2022-12-29T11:15:21.992Z,13.70
2022-12-29T11:20:39.529Z,12.75
2022-12-29T11:25:43.124Z,9.00
2022-12-29T11:30:45.162Z,6.82
2022-12-29T11:35:47.053Z,6.88
2022-12-29T11:40:49.784Z,17.30
2022-12-29T11:45:54.784Z,11.90
2022-12-29T11:51:00.686Z,14.40
2022-12-29T11:56:07.048Z,9.77
2022-12-29T12:01:38.062Z,5.63
2022-12-29T12:06:48.233Z,11.38
2022-12-29T12:11:54.979Z,9.43
2022-12-29T12:17:05.367Z,8.23
2022-12-29T12:22:16.987Z,5.90
2022-12-29T12:27:35.917Z,6.72
2022-12-29T12:32:49.446Z,9.70
2022-12-29T12:38:17.950Z,6.80
2022-12-29T12:43:45.225Z,14.27
2022-12-29T12:49:14.869Z,8.32
2022-12-29T12:54:44.520Z,9.93
2022-12-29T12:59:59.291Z,10.23
2022-12-29T13:05:28.993Z,11.77
2022-12-29T13:10:54.418Z,13.38
2022-12-29T13:16:14.906Z,11.40
2022-12-29T13:21:48.289Z,4.60
2022-12-29T13:26:59.924Z,11.73
2022-12-29T13:32:13.705Z,13.65
2022-12-29T13:37:19.390Z,11.38
2022-12-29T13:42:22.244Z,7.00
2022-12-29T13:47:42.440Z,4.38
2022-12-29T13:53:11.654Z,6.63
2022-12-29T13:58:24.138Z,14.95
2022-12-29T14:03:49.037Z,9.50
2022-12-29T14:09:03.337Z,9.18
2022-12-29T14:14:20.060Z,11.18
2022-12-29T14:19:29.823Z,8.98
2022-12-29T14:24:37.343Z,14.35
2022-12-29T14:29:44.047Z,9.38
2022-12-29T14:34:51.821Z,7.43
2022-12-29T14:40:20.320Z,8.20
2022-12-29T14:45:21.985Z,7.65
2022-12-29T14:50:31.549Z,18.85
2022-12-29T14:55:47.758Z,12.15
2022-12-29T15:00:50.364Z,15.80
2022-12-29T15:05:57.610Z,14.02
2022-12-29T15:11:13.103Z,15.13
2022-12-29T15:16:30.286Z,9.10
2022-12-29T15:21:37.374Z,12.95
2022-12-29T15:26:46.483Z,12.68
2022-12-29T15:31:49.821Z,3.80
2022-12-29T15:36:52.367Z,6.10
2022-12-29T15:42:02.368Z,5.90
2022-12-29T15:47:15.487Z,3.97
2022-12-29T15:52:26.549Z,1.98
2022-12-29T15:57:31.203Z,7.60
2022-12-29T16:02:34.880Z,5.45
2022-12-29T16:07:41.624Z,9.77
2022-12-29T16:12:43.936Z,8.65
2022-12-29T16:17:53.809Z,4.82
2022-12-29T16:23:00.974Z,5.43
2022-12-29T16:28:15.398Z,7.30
2022-12-29T16:33:38.548Z,10.13
2022-12-29T16:38:43.926Z,8.95
2022-12-29T16:43:45.724Z,12.90
2022-12-29T16:48:54.739Z,18.65
2022-12-29T16:53:57.453Z,9.10
2022-12-29T16:59:06.918Z,12.73
2022-12-29T17:04:14.214Z,21.90
2022-12-29T17:09:24.723Z,12.45
2022-12-29T17:14:58.696Z,12.25
2022-12-29T17:20:07.141Z,18.17
2022-12-29T17:25:14.414Z,13.23
2022-12-29T17:30:18.840Z,12.32
2022-12-29T17:35:22.428Z,10.68
2022-12-29T17:40:29.731Z,15.73
2022-12-29T17:45:32.774Z,11.13
2022-12-29T17:50:34.596Z,14.38
2022-12-29T17:55:38.394Z,16.10
2022-12-29T18:00:40.793Z,18.80
2022-12-29T18:05:42.793Z,11.88
2022-12-29T18:10:44.778Z,15.95
2022-12-29T18:15:47.253Z,11.63
2022-12-29T18:20:51.610Z,13.13
2022-12-29T18:25:59.177Z,13.48
2022-12-29T18:31:01.736Z,12.15
2022-12-29T18:36:05.828Z,12.25
2022-12-29T18:41:20.660Z,14.55
2022-12-29T18:46:23.883Z,12.77
2022-12-29T18:51:26.201Z,13.60
2022-12-29T18:56:28.043Z,8.82
2022-12-29T19:01:31.106Z,17.88
2022-12-29T19:06:33.068Z,9.90
2022-12-29T19:11:35.523Z,18.02
2022-12-29T19:16:37.465Z,13.13
2022-12-29T19:21:39.319Z,11.20
2022-12-29T19:26:41.458Z,14.05
2022-12-29T19:31:43.441Z,17.95
2022-12-29T19:36:46.046Z,13.43
2022-12-29T19:41:47.918Z,18.30
2022-12-29T19:46:49.922Z,8.40
2022-12-29T19:51:51.714Z,16.08
2022-12-29T19:56:53.514Z,8.93
2022-12-29T20:01:55.539Z,13.57
2022-12-29T20:06:57.456Z,12.35
2022-12-29T20:11:59.242Z,27.00
2022-12-29T20:17:11.249Z,17.73
2022-12-29T20:22:14.142Z,15.52
2022-12-29T20:27:16.286Z,12.23
2022-12-29T20:32:25.318Z,12.30
2022-12-29T20:37:27.462Z,15.82
2022-12-29T20:42:29.329Z,19.77
2022-12-29T20:47:31.551Z,16.77
2022-12-29T20:52:33.369Z,17.77
2022-12-29T20:57:56.995Z,11.63
2022-12-29T21:02:58.544Z,10.85
2022-12-29T21:08:00.418Z,13.25
2022-12-29T21:13:02.210Z,14.35
2022-12-29T21:18:04.044Z,19.83
2022-12-29T21:23:06.709Z,10.57
2022-12-29T21:28:12.193Z,14.55
2022-12-29T21:33:14.077Z,15.60
2022-12-29T21:38:15.859Z,12.40
2022-12-29T21:43:17.618Z,19.88
2022-12-29T21:48:23.681Z,19.48
2022-12-29T21:53:38.212Z,11.65
2022-12-29T21:59:00.385Z,13.00
2022-12-29T22:04:21.009Z,10.02
2022-12-29T22:09:43.823Z,9.48
2022-12-29T22:14:46.024Z,12.82
2022-12-29T22:19:47.822Z,12.63
2022-12-29T22:24:49.732Z,12.10
2022-12-29T22:29:51.712Z,11.50
2022-12-29T22:34:53.515Z,8.90
2022-12-29T22:39:55.501Z,16.52
2022-12-29T22:44:57.275Z,12.57
2022-12-29T22:49:59.021Z,15.95
2022-12-29T22:55:06.400Z,18.90
2022-12-29T23:00:09.769Z,16.10
2022-12-29T23:05:14.875Z,24.35
2022-12-29T23:10:17.107Z,15.65
2022-12-29T23:15:18.878Z,13.75
2022-12-29T23:20:20.658Z,6.95
2022-12-29T23:25:22.417Z,11.05
2022-12-29T23:30:24.204Z,9.70
2022-12-29T23:35:26.089Z,14.35
2022-12-29T23:40:27.865Z,14.73
2022-12-29T23:45:29.628Z,13.32
2022-12-29T23:50:32.164Z,18.83
2022-12-29T23:55:34.066Z,10.93
